sensor_id;sensor_type;location;lat;lon;timestamp;pressure;altitude;pressure_sealevel;temperature;humidity
12475;BME280;6302;42.624;23.334;2023-07-13T00:01:30;93622.22;;;23.66;69.27
12475;BME280;6302;42.624;23.334;2023-07-13T00:03:59;93609.19;;;23.65;69.05
12475;BME280;6302;42.624;23.334;2023-07-13T00:06:27;93611.59;;;23.63;70.88
12475;BME280;6302;42.624;23.334;2023-07-13T00:08:55;93614.75;;;23.61;70.90
12475;BME280;6302;42.624;23.334;2023-07-13T00:11:22;93607.56;;;23.58;70.69
12475;BME280;6302;42.624;23.334;2023-07-13T00:13:49;93605.81;;;23.55;71.21
12475;BME280;6302;42.624;23.334;2023-07-13T00:16:16;93607.50;;;23.53;71.35
12475;BME280;6302;42.624;23.334;2023-07-13T00:18:44;93606.47;;;23.50;71.56
12475;BME280;6302;42.624;23.334;2023-07-13T00:21:11;93600.03;;;23.48;71.79
12475;BME280;6302;42.624;23.334;2023-07-13T00:23:41;93599.28;;;23.47;73.03
12475;BME280;6302;42.624;23.334;2023-07-13T00:26:09;93600.22;;;23.44;73.92
12475;BME280;6302;42.624;23.334;2023-07-13T00:28:37;93601.91;;;23.42;73.84
12475;BME280;6302;42.624;23.334;2023-07-13T00:31:05;93600.59;;;23.37;70.86
12475;BME280;6302;42.624;23.334;2023-07-13T00:33:31;93591.91;;;23.33;73.75
12475;BME280;6302;42.624;23.334;2023-07-13T00:35:58;93599.53;;;23.35;75.37
12475;BME280;6302;42.624;23.334;2023-07-13T00:38:25;93602.41;;;23.31;75.83
12475;BME280;6302;42.624;23.334;2023-07-13T00:40:53;93605.03;;;23.25;76.49
12475;BME280;6302;42.624;23.334;2023-07-13T00:43:21;93590.19;;;23.21;79.18
12475;BME280;6302;42.624;23.334;2023-07-13T00:46:16;93592.06;;;23.15;78.57
12475;BME280;6302;42.624;23.334;2023-07-13T00:48:45;93594.94;;;23.11;79.67
12475;BME280;6302;42.624;23.334;2023-07-13T00:51:16;93595.88;;;23.08;79.25
12475;BME280;6302;42.624;23.334;2023-07-13T00:53:44;93601.47;;;23.05;78.18
12475;BME280;6302;42.624;23.334;2023-07-13T00:56:12;93597.56;;;23.06;80.30
12475;BME280;6302;42.624;23.334;2023-07-13T00:58:39;93601.63;;;23.01;80.46
12475;BME280;6302;42.624;23.334;2023-07-13T01:01:06;93590.09;;;23.01;81.27
12475;BME280;6302;42.624;23.334;2023-07-13T01:03:35;93581.88;;;22.95;82.65
12475;BME280;6302;42.624;23.334;2023-07-13T01:06:03;93577.56;;;22.89;83.93
12475;BME280;6302;42.624;23.334;2023-07-13T01:08:30;93571.59;;;22.85;84.27
12475;BME280;6302;42.624;23.334;2023-07-13T01:10:57;93566.38;;;22.81;85.67
12475;BME280;6302;42.624;23.334;2023-07-13T01:13:26;93569.72;;;22.76;86.55
12475;BME280;6302;42.624;23.334;2023-07-13T01:15:55;93579.03;;;22.75;85.93
12475;BME280;6302;42.624;23.334;2023-07-13T01:18:26;93578.75;;;22.73;86.35
12475;BME280;6302;42.624;23.334;2023-07-13T01:20:56;93580.13;;;22.69;87.38
12475;BME280;6302;42.624;23.334;2023-07-13T01:23:23;93584.19;;;22.64;88.67
12475;BME280;6302;42.624;23.334;2023-07-13T01:25:52;93578.69;;;22.58;88.61
12475;BME280;6302;42.624;23.334;2023-07-13T01:28:21;93575.97;;;22.58;89.07
12475;BME280;6302;42.624;23.334;2023-07-13T01:30:48;93573.72;;;22.57;90.52
12475;BME280;6302;42.624;23.334;2023-07-13T01:33:16;93575.84;;;22.53;89.91
12475;BME280;6302;42.624;23.334;2023-07-13T01:35:44;93581.72;;;22.51;90.20
12475;BME280;6302;42.624;23.334;2023-07-13T01:38:14;93578.91;;;22.46;89.46
12475;BME280;6302;42.624;23.334;2023-07-13T01:40:41;93573.66;;;22.42;90.52
12475;BME280;6302;42.624;23.334;2023-07-13T01:43:09;93576.09;;;22.40;91.40
12475;BME280;6302;42.624;23.334;2023-07-13T01:45:36;93569.94;;;22.40;89.70
12475;BME280;6302;42.624;23.334;2023-07-13T01:48:03;93569.50;;;22.41;90.56
12475;BME280;6302;42.624;23.334;2023-07-13T01:50:32;93579.69;;;22.37;89.65
12475;BME280;6302;42.624;23.334;2023-07-13T01:52:59;93568.63;;;22.35;89.44
12475;BME280;6302;42.624;23.334;2023-07-13T01:55:27;93570.13;;;22.36;91.80
12475;BME280;6302;42.624;23.334;2023-07-13T01:57:55;93573.44;;;22.31;92.03
12475;BME280;6302;42.624;23.334;2023-07-13T02:00:21;93572.88;;;22.27;93.44
12475;BME280;6302;42.624;23.334;2023-07-13T02:02:48;93570.63;;;22.26;93.91
12475;BME280;6302;42.624;23.334;2023-07-13T02:05:15;93582.19;;;22.26;95.02
12475;BME280;6302;42.624;23.334;2023-07-13T02:07:42;93573.81;;;22.24;96.27
12475;BME280;6302;42.624;23.334;2023-07-13T02:10:10;93583.09;;;22.23;96.33
12475;BME280;6302;42.624;23.334;2023-07-13T02:12:38;93573.38;;;22.17;96.50
12475;BME280;6302;42.624;23.334;2023-07-13T02:15:06;93570.56;;;22.11;94.98
12475;BME280;6302;42.624;23.334;2023-07-13T02:17:34;93583.59;;;22.13;98.10
12475;BME280;6302;42.624;23.334;2023-07-13T02:20:01;93581.06;;;22.09;98.06
12475;BME280;6302;42.624;23.334;2023-07-13T02:22:29;93584.06;;;22.11;97.10
12475;BME280;6302;42.624;23.334;2023-07-13T02:24:56;93572.97;;;22.09;97.67
12475;BME280;6302;42.624;23.334;2023-07-13T02:27:22;93579.56;;;22.08;97.43
12475;BME280;6302;42.624;23.334;2023-07-13T02:29:51;93581.22;;;22.06;97.82
12475;BME280;6302;42.624;23.334;2023-07-13T02:32:18;93585.31;;;22.01;98.63
12475;BME280;6302;42.624;23.334;2023-07-13T02:34:44;93586.50;;;22.00;98.76
12475;BME280;6302;42.624;23.334;2023-07-13T02:37:11;93584.75;;;21.88;97.81
12475;BME280;6302;42.624;23.334;2023-07-13T02:39:38;93594.06;;;21.87;99.33
12475;BME280;6302;42.624;23.334;2023-07-13T02:42:06;93583.00;;;21.85;99.21
12475;BME280;6302;42.624;23.334;2023-07-13T02:44:33;93593.31;;;21.86;99.56
12475;BME280;6302;42.624;23.334;2023-07-13T02:47:01;93585.69;;;21.85;100.00
12475;BME280;6302;42.624;23.334;2023-07-13T02:49:27;93588.69;;;21.87;96.32
12475;BME280;6302;42.624;23.334;2023-07-13T02:51:54;93587.75;;;21.90;99.76
12475;BME280;6302;42.624;23.334;2023-07-13T02:54:21;93591.38;;;21.87;99.72
12475;BME280;6302;42.624;23.334;2023-07-13T02:56:48;93588.97;;;21.89;100.00
12475;BME280;6302;42.624;23.334;2023-07-13T02:59:14;93587.16;;;21.86;100.00
12475;BME280;6302;42.624;23.334;2023-07-13T03:01:41;93590.16;;;21.88;100.00
12475;BME280;6302;42.624;23.334;2023-07-13T03:04:11;93586.41;;;21.85;100.00
12475;BME280;6302;42.624;23.334;2023-07-13T03:06:38;93586.41;;;21.85;100.00
12475;BME280;6302;42.624;23.334;2023-07-13T03:09:05;93583.00;;;21.85;100.00
12475;BME280;6302;42.624;23.334;2023-07-13T03:11:33;93585.69;;;21.85;100.00
12475;BME280;6302;42.624;23.334;2023-07-13T03:14:00;93587.16;;;21.86;100.00
12475;BME280;6302;42.624;23.334;2023-07-13T03:16:27;93595.41;;;21.91;100.00
12475;BME280;6302;42.624;23.334;2023-07-13T03:18:54;93594.31;;;21.98;98.13
12475;BME280;6302;42.624;23.334;2023-07-13T03:21:22;93593.97;;;22.05;98.57
12475;BME280;6302;42.624;23.334;2023-07-13T03:23:49;93603.09;;;22.08;100.00
12475;BME280;6302;42.624;23.334;2023-07-13T03:26:17;93594.56;;;22.09;100.00
12475;BME280;6302;42.624;23.334;2023-07-13T03:28:44;93612.59;;;22.03;100.00
12475;BME280;6302;42.624;23.334;2023-07-13T03:31:13;93598.81;;;22.01;100.00
12475;BME280;6302;42.624;23.334;2023-07-13T03:33:41;93598.94;;;22.07;100.00
12475;BME280;6302;42.624;23.334;2023-07-13T03:36:13;93597.56;;;22.11;100.00
12475;BME280;6302;42.624;23.334;2023-07-13T03:38:43;93596.34;;;22.12;100.00
12475;BME280;6302;42.624;23.334;2023-07-13T03:41:09;93610.25;;;22.20;100.00
12475;BME280;6302;42.624;23.334;2023-07-13T03:43:36;93612.16;;;22.28;100.00
12475;BME280;6302;42.624;23.334;2023-07-13T03:46:03;93605.94;;;22.37;100.00
12475;BME280;6302;42.624;23.334;2023-07-13T03:48:30;93601.44;;;22.43;100.00
12475;BME280;6302;42.624;23.334;2023-07-13T03:50:56;93606.19;;;22.48;100.00
12475;BME280;6302;42.624;23.334;2023-07-13T03:53:23;93614.72;;;22.55;100.00
12475;BME280;6302;42.624;23.334;2023-07-13T03:55:51;93602.06;;;22.61;100.00
12475;BME280;6302;42.624;23.334;2023-07-13T03:58:28;93610.13;;;22.71;100.00
12475;BME280;6302;42.624;23.334;2023-07-13T04:00:56;93605.88;;;22.79;99.78
12475;BME280;6302;42.624;23.334;2023-07-13T04:03:24;93598.88;;;22.87;99.09
12475;BME280;6302;42.624;23.334;2023-07-13T04:05:54;93596.41;;;22.98;98.51
12475;BME280;6302;42.624;23.334;2023-07-13T04:08:25;93599.22;;;23.03;99.48
12475;BME280;6302;42.624;23.334;2023-07-13T04:10:53;93602.28;;;23.11;100.00
12475;BME280;6302;42.624;23.334;2023-07-13T04:13:20;93604.66;;;23.18;100.00
12475;BME280;6302;42.624;23.334;2023-07-13T04:15:47;93602.78;;;23.24;100.00
12475;BME280;6302;42.624;23.334;2023-07-13T04:18:14;93608.13;;;23.33;100.00
12475;BME280;6302;42.624;23.334;2023-07-13T04:20:40;93601.16;;;23.41;100.00
12475;BME280;6302;42.624;23.334;2023-07-13T04:23:07;93592.19;;;23.50;100.00
12475;BME280;6302;42.624;23.334;2023-07-13T04:25:34;93603.94;;;23.61;100.00
12475;BME280;6302;42.624;23.334;2023-07-13T04:28:03;93605.06;;;23.69;100.00
12475;BME280;6302;42.624;23.334;2023-07-13T04:30:30;93610.84;;;23.77;99.19
12475;BME280;6302;42.624;23.334;2023-07-13T04:32:57;93610.94;;;23.82;100.00
12475;BME280;6302;42.624;23.334;2023-07-13T04:35:24;93617.19;;;23.88;100.00
12475;BME280;6302;42.624;23.334;2023-07-13T04:37:51;93620.44;;;23.92;100.00
12475;BME280;6302;42.624;23.334;2023-07-13T04:40:20;93611.50;;;23.72;98.29
12475;BME280;6302;42.624;23.334;2023-07-13T04:42:47;93619.03;;;23.68;99.59
12475;BME280;6302;42.624;23.334;2023-07-13T04:45:15;93631.38;;;23.83;100.00
12475;BME280;6302;42.624;23.334;2023-07-13T04:47:42;93626.16;;;23.94;99.68
12475;BME280;6302;42.624;23.334;2023-07-13T04:50:12;93622.22;;;23.95;99.59
12475;BME280;6302;42.624;23.334;2023-07-13T04:52:40;93625.75;;;24.02;100.00
12475;BME280;6302;42.624;23.334;2023-07-13T04:55:08;93627.88;;;23.98;100.00
12475;BME280;6302;42.624;23.334;2023-07-13T04:57:35;93633.41;;;24.18;100.00
12475;BME280;6302;42.624;23.334;2023-07-13T05:00:02;93631.81;;;24.26;100.00
12475;BME280;6302;42.624;23.334;2023-07-13T05:02:33;93641.25;;;24.16;100.00
12475;BME280;6302;42.624;23.334;2023-07-13T05:04:59;93633.59;;;24.00;100.00
12475;BME280;6302;42.624;23.334;2023-07-13T05:07:26;93643.31;;;23.91;100.00
12475;BME280;6302;42.624;23.334;2023-07-13T05:09:53;93644.72;;;23.87;100.00
12475;BME280;6302;42.624;23.334;2023-07-13T05:12:20;93641.34;;;24.07;100.00
12475;BME280;6302;42.624;23.334;2023-07-13T05:14:47;93647.50;;;24.22;100.00
12475;BME280;6302;42.624;23.334;2023-07-13T05:17:14;93645.22;;;24.35;100.00
12475;BME280;6302;42.624;23.334;2023-07-13T05:19:43;93654.88;;;24.56;100.00
12475;BME280;6302;42.624;23.334;2023-07-13T05:22:10;93656.25;;;24.66;100.00
12475;BME280;6302;42.624;23.334;2023-07-13T05:24:37;93663.28;;;24.58;100.00
12475;BME280;6302;42.624;23.334;2023-07-13T05:27:04;93663.56;;;24.60;100.00
12475;BME280;6302;42.624;23.334;2023-07-13T05:29:31;93665.19;;;24.72;100.00
12475;BME280;6302;42.624;23.334;2023-07-13T05:31:58;93666.19;;;24.89;100.00
12475;BME280;6302;42.624;23.334;2023-07-13T05:34:25;93665.09;;;25.01;98.41
12475;BME280;6302;42.624;23.334;2023-07-13T05:36:53;93661.28;;;25.13;96.63
12475;BME280;6302;42.624;23.334;2023-07-13T05:39:20;93656.75;;;25.25;96.13
12475;BME280;6302;42.624;23.334;2023-07-13T05:41:48;93670.97;;;25.40;95.32
12475;BME280;6302;42.624;23.334;2023-07-13T05:44:15;93666.56;;;25.43;95.25
12475;BME280;6302;42.624;23.334;2023-07-13T05:46:42;93665.25;;;25.58;95.64
12475;BME280;6302;42.624;23.334;2023-07-13T05:49:09;93661.91;;;25.69;93.96
12475;BME280;6302;42.624;23.334;2023-07-13T05:51:35;93668.25;;;25.86;92.23
12475;BME280;6302;42.624;23.334;2023-07-13T05:54:03;93664.94;;;26.02;89.41
12475;BME280;6302;42.624;23.334;2023-07-13T05:56:30;93665.56;;;26.17;88.58
12475;BME280;6302;42.624;23.334;2023-07-13T05:58:57;93659.69;;;26.24;90.43
12475;BME280;6302;42.624;23.334;2023-07-13T06:01:24;93662.50;;;26.10;90.74
12475;BME280;6302;42.624;23.334;2023-07-13T06:03:51;93664.22;;;26.07;89.52
12475;BME280;6302;42.624;23.334;2023-07-13T06:06:17;93654.00;;;26.22;88.04
12475;BME280;6302;42.624;23.334;2023-07-13T06:08:44;93646.19;;;26.35;85.99
12475;BME280;6302;42.624;23.334;2023-07-13T06:11:15;93640.38;;;26.54;82.95
12475;BME280;6302;42.624;23.334;2023-07-13T06:13:42;93645.41;;;26.72;82.21
12475;BME280;6302;42.624;23.334;2023-07-13T06:16:09;93644.91;;;26.68;83.47
12475;BME280;6302;42.624;23.334;2023-07-13T06:18:37;93644.63;;;26.66;85.27
12475;BME280;6302;42.624;23.334;2023-07-13T06:21:08;93656.22;;;26.61;88.65
12475;BME280;6302;42.624;23.334;2023-07-13T06:23:35;93653.25;;;26.59;86.41
12475;BME280;6302;42.624;23.334;2023-07-13T06:26:02;93672.59;;;26.72;89.88
12475;BME280;6302;42.624;23.334;2023-07-13T06:28:31;93670.38;;;26.70;89.05
12475;BME280;6302;42.624;23.334;2023-07-13T06:30:59;93672.16;;;26.79;87.87
12475;BME280;6302;42.624;23.334;2023-07-13T06:33:26;93667.56;;;26.96;88.37
12475;BME280;6302;42.624;23.334;2023-07-13T06:35:54;93665.84;;;27.04;86.76
12475;BME280;6302;42.624;23.334;2023-07-13T06:38:21;93661.88;;;26.99;83.49
12475;BME280;6302;42.624;23.334;2023-07-13T06:40:48;93662.41;;;27.09;85.79
12475;BME280;6302;42.624;23.334;2023-07-13T06:43:16;93656.47;;;27.05;80.37
12475;BME280;6302;42.624;23.334;2023-07-13T06:45:45;93658.19;;;27.02;82.42
12475;BME280;6302;42.624;23.334;2023-07-13T06:48:14;93669.06;;;27.02;80.00
12475;BME280;6302;42.624;23.334;2023-07-13T06:50:41;93664.38;;;27.08;81.30
12475;BME280;6302;42.624;23.334;2023-07-13T06:53:08;93661.66;;;27.08;82.63
12475;BME280;6302;42.624;23.334;2023-07-13T06:55:35;93655.78;;;27.21;83.13
12475;BME280;6302;42.624;23.334;2023-07-13T06:58:03;93657.34;;;27.39;81.45
12475;BME280;6302;42.624;23.334;2023-07-13T07:00:31;93656.88;;;27.40;81.63
12475;BME280;6302;42.624;23.334;2023-07-13T07:02:59;93663.78;;;27.41;82.05
12475;BME280;6302;42.624;23.334;2023-07-13T07:05:26;93662.25;;;27.29;81.46
12475;BME280;6302;42.624;23.334;2023-07-13T07:07:54;93662.50;;;27.31;84.22
12475;BME280;6302;42.624;23.334;2023-07-13T07:10:22;93661.84;;;27.47;86.66
12475;BME280;6302;42.624;23.334;2023-07-13T07:12:49;93663.09;;;27.63;82.90
12475;BME280;6302;42.624;23.334;2023-07-13T07:15:17;93666.59;;;27.74;83.08
12475;BME280;6302;42.624;23.334;2023-07-13T07:17:44;93672.31;;;27.77;77.83
12475;BME280;6302;42.624;23.334;2023-07-13T07:20:21;93670.84;;;27.92;75.55
12475;BME280;6302;42.624;23.334;2023-07-13T07:22:48;93671.56;;;27.93;76.20
12475;BME280;6302;42.624;23.334;2023-07-13T07:25:15;93665.38;;;27.98;76.18
12475;BME280;6302;42.624;23.334;2023-07-13T07:27:41;93666.41;;;28.00;75.17
12475;BME280;6302;42.624;23.334;2023-07-13T07:30:09;93660.72;;;28.04;77.25
12475;BME280;6302;42.624;23.334;2023-07-13T07:32:36;93660.22;;;28.11;76.56
12475;BME280;6302;42.624;23.334;2023-07-13T07:35:03;93658.97;;;28.17;76.67
12475;BME280;6302;42.624;23.334;2023-07-13T07:37:32;93653.03;;;28.08;74.93
12475;BME280;6302;42.624;23.334;2023-07-13T07:39:58;93650.06;;;28.06;76.06
12475;BME280;6302;42.624;23.334;2023-07-13T07:42:25;93650.56;;;28.04;75.33
12475;BME280;6302;42.624;23.334;2023-07-13T07:44:52;93647.59;;;28.19;77.62
12475;BME280;6302;42.624;23.334;2023-07-13T07:47:19;93650.81;;;28.34;70.27
12475;BME280;6302;42.624;23.334;2023-07-13T07:49:45;93645.84;;;28.38;73.58
12475;BME280;6302;42.624;23.334;2023-07-13T07:52:12;93649.50;;;28.57;73.07
12475;BME280;6302;42.624;23.334;2023-07-13T07:54:40;93645.81;;;28.71;70.62
12475;BME280;6302;42.624;23.334;2023-07-13T07:57:07;93642.28;;;28.87;69.70
12475;BME280;6302;42.624;23.334;2023-07-13T07:59:36;93645.19;;;29.06;68.74
12475;BME280;6302;42.624;23.334;2023-07-13T08:02:03;93650.34;;;29.26;68.67
12475;BME280;6302;42.624;23.334;2023-07-13T08:04:30;93650.63;;;29.23;66.23
12475;BME280;6302;42.624;23.334;2023-07-13T08:06:57;93639.47;;;29.15;65.61
12475;BME280;6302;42.624;23.334;2023-07-13T08:09:24;93630.75;;;29.17;66.17
12475;BME280;6302;42.624;23.334;2023-07-13T08:11:52;93629.03;;;29.19;68.14
12475;BME280;6302;42.624;23.334;2023-07-13T08:14:20;93624.53;;;29.33;69.52
12475;BME280;6302;42.624;23.334;2023-07-13T08:16:47;93621.91;;;29.51;69.07
12475;BME280;6302;42.624;23.334;2023-07-13T08:19:14;93616.88;;;29.61;67.76
12475;BME280;6302;42.624;23.334;2023-07-13T08:21:41;93612.34;;;29.75;68.66
12475;BME280;6302;42.624;23.334;2023-07-13T08:24:08;93619.97;;;29.87;68.33
12475;BME280;6302;42.624;23.334;2023-07-13T08:26:35;93616.94;;;29.96;64.33
12475;BME280;6302;42.624;23.334;2023-07-13T08:29:04;93613.13;;;30.05;65.19
12475;BME280;6302;42.624;23.334;2023-07-13T08:31:31;93614.88;;;30.02;66.67
12475;BME280;6302;42.624;23.334;2023-07-13T08:33:58;93615.13;;;30.04;65.78
12475;BME280;6302;42.624;23.334;2023-07-13T08:36:25;93609.78;;;30.17;69.34
12475;BME280;6302;42.624;23.334;2023-07-13T08:38:53;93613.06;;;30.10;65.73
12475;BME280;6302;42.624;23.334;2023-07-13T08:41:20;93615.34;;;30.06;66.83
12475;BME280;6302;42.624;23.334;2023-07-13T08:43:50;93607.75;;;30.23;64.15
12475;BME280;6302;42.624;23.334;2023-07-13T08:46:24;93609.50;;;30.21;65.04
12475;BME280;6302;42.624;23.334;2023-07-13T08:48:55;93606.31;;;30.17;65.22
12475;BME280;6302;42.624;23.334;2023-07-13T08:51:29;93591.34;;;30.23;63.67
12475;BME280;6302;42.624;23.334;2023-07-13T08:54:00;93603.75;;;30.24;64.70
12475;BME280;6302;42.624;23.334;2023-07-13T08:56:29;93610.66;;;30.37;64.28
12475;BME280;6302;42.624;23.334;2023-07-13T08:58:57;93604.13;;;30.40;62.32
12475;BME280;6302;42.624;23.334;2023-07-13T09:01:30;93612.03;;;30.49;60.55
12475;BME280;6302;42.624;23.334;2023-07-13T09:04:03;93611.91;;;30.60;60.87
12475;BME280;6302;42.624;23.334;2023-07-13T09:06:36;93623.94;;;30.75;58.48
12475;BME280;6302;42.624;23.334;2023-07-13T09:09:12;93631.03;;;30.84;59.09
12475;BME280;6302;42.624;23.334;2023-07-13T09:11:46;93636.19;;;30.69;55.38
12475;BME280;6302;42.624;23.334;2023-07-13T09:14:38;93641.81;;;30.76;57.62
12475;BME280;6302;42.624;23.334;2023-07-13T09:17:13;93647.38;;;30.95;60.48
12475;BME280;6302;42.624;23.334;2023-07-13T09:19:41;93643.53;;;31.04;59.08
12475;BME280;6302;42.624;23.334;2023-07-13T09:22:17;93654.31;;;31.20;57.70
12475;BME280;6302;42.624;23.334;2023-07-13T09:24:52;93645.03;;;31.23;56.56
12475;BME280;6302;42.624;23.334;2023-07-13T09:27:27;93640.13;;;31.40;54.13
12475;BME280;6302;42.624;23.334;2023-07-13T09:30:02;93643.00;;;31.67;52.86
12475;BME280;6302;42.624;23.334;2023-07-13T09:32:32;93639.94;;;31.89;52.02
12475;BME280;6302;42.624;23.334;2023-07-13T09:35:00;93643.44;;;31.89;47.21
12475;BME280;6302;42.624;23.334;2023-07-13T09:37:30;93645.53;;;32.02;46.49
12475;BME280;6302;42.624;23.334;2023-07-13T09:39:58;93639.63;;;32.11;45.58
12475;BME280;6302;42.624;23.334;2023-07-13T09:42:26;93641.34;;;32.14;47.24
12475;BME280;6302;42.624;23.334;2023-07-13T09:44:55;93638.97;;;32.05;49.93
12475;BME280;6302;42.624;23.334;2023-07-13T09:47:24;93574.72;;;31.69;47.61
12475;BME280;6302;42.624;23.334;2023-07-13T09:49:57;93630.06;;;32.17;49.19
12475;BME280;6302;42.624;23.334;2023-07-13T09:52:25;93625.69;;;32.41;49.54
12475;BME280;6302;42.624;23.334;2023-07-13T09:54:53;93617.03;;;32.50;48.10
12475;BME280;6302;42.624;23.334;2023-07-13T09:57:26;93618.22;;;32.54;47.99
12475;BME280;6302;42.624;23.334;2023-07-13T09:59:55;93614.03;;;32.66;48.79
12475;BME280;6302;42.624;23.334;2023-07-13T10:02:26;93611.84;;;32.91;49.84
12475;BME280;6302;42.624;23.334;2023-07-13T10:05:00;93610.03;;;33.07;46.33
12475;BME280;6302;42.624;23.334;2023-07-13T10:07:29;93605.50;;;33.09;46.14
12475;BME280;6302;42.624;23.334;2023-07-13T10:09:57;93599.13;;;33.27;46.97
12475;BME280;6302;42.624;23.334;2023-07-13T10:12:24;93595.72;;;33.34;49.44
12475;BME280;6302;42.624;23.334;2023-07-13T10:14:54;93589.47;;;33.47;48.04
12475;BME280;6302;42.624;23.334;2023-07-13T10:17:28;93591.34;;;33.65;47.45
12475;BME280;6302;42.624;23.334;2023-07-13T10:20:01;93592.03;;;33.79;47.74
12475;BME280;6302;42.624;23.334;2023-07-13T10:22:36;93588.13;;;33.95;46.17
12475;BME280;6302;42.624;23.334;2023-07-13T10:25:14;93587.63;;;33.96;45.34
12475;BME280;6302;42.624;23.334;2023-07-13T10:27:42;93592.44;;;34.03;45.18
12475;BME280;6302;42.624;23.334;2023-07-13T10:30:13;93589.31;;;33.99;43.75
12475;BME280;6302;42.624;23.334;2023-07-13T10:32:42;93585.72;;;34.05;46.89
12475;BME280;6302;42.624;23.334;2023-07-13T10:35:13;93586.84;;;34.09;42.74
12475;BME280;6302;42.624;23.334;2023-07-13T10:37:45;93582.13;;;34.17;42.27
12475;BME280;6302;42.624;23.334;2023-07-13T10:40:18;93577.16;;;34.16;44.41
12475;BME280;6302;42.624;23.334;2023-07-13T10:42:48;93578.84;;;34.19;41.33
12475;BME280;6302;42.624;23.334;2023-07-13T10:45:20;93574.81;;;34.20;41.13
12475;BME280;6302;42.624;23.334;2023-07-13T10:47:48;93573.47;;;34.13;44.29
12475;BME280;6302;42.624;23.334;2023-07-13T10:50:20;93570.72;;;34.34;46.30
12475;BME280;6302;42.624;23.334;2023-07-13T10:52:50;93561.09;;;34.48;41.05
12475;BME280;6302;42.624;23.334;2023-07-13T10:55:37;93556.59;;;34.58;43.13
12475;BME280;6302;42.624;23.334;2023-07-13T10:58:13;93545.88;;;34.75;42.75
12475;BME280;6302;42.624;23.334;2023-07-13T11:01:03;93540.75;;;34.79;38.88
12475;BME280;6302;42.624;23.334;2023-07-13T11:03:31;93541.16;;;34.83;43.19
12475;BME280;6302;42.624;23.334;2023-07-13T11:06:18;93543.09;;;35.03;42.77
12475;BME280;6302;42.624;23.334;2023-07-13T11:08:57;93532.53;;;35.22;43.42
12475;BME280;6302;42.624;23.334;2023-07-13T11:11:36;93528.88;;;35.35;41.25
12475;BME280;6302;42.624;23.334;2023-07-13T11:14:05;93524.69;;;35.42;44.22
12475;BME280;6302;42.624;23.334;2023-07-13T11:16:51;93514.22;;;35.48;41.35
12475;BME280;6302;42.624;23.334;2023-07-13T11:19:39;93524.75;;;35.57;39.52
12475;BME280;6302;42.624;23.334;2023-07-13T11:22:16;93517.94;;;35.58;39.37
12475;BME280;6302;42.624;23.334;2023-07-13T11:24:49;93508.72;;;35.48;35.57
12475;BME280;6302;42.624;23.334;2023-07-13T11:27:34;93516.09;;;35.68;38.72
12475;BME280;6302;42.624;23.334;2023-07-13T11:30:20;93508.03;;;35.70;36.74
12475;BME280;6302;42.624;23.334;2023-07-13T11:32:50;93509.13;;;35.67;37.59
12475;BME280;6302;42.624;23.334;2023-07-13T11:35:22;93509.16;;;35.74;35.95
12475;BME280;6302;42.624;23.334;2023-07-13T11:37:51;93508.75;;;35.78;34.50
12475;BME280;6302;42.624;23.334;2023-07-13T11:40:19;93506.38;;;35.74;37.25
12475;BME280;6302;42.624;23.334;2023-07-13T11:42:49;93503.63;;;35.82;35.70
12475;BME280;6302;42.624;23.334;2023-07-13T11:45:20;93500.00;;;36.02;36.35
12475;BME280;6302;42.624;23.334;2023-07-13T11:47:48;93498.69;;;36.03;37.09
12475;BME280;6302;42.624;23.334;2023-07-13T11:50:19;93503.28;;;36.08;37.89
12475;BME280;6302;42.624;23.334;2023-07-13T11:52:46;93494.81;;;36.29;36.55
12475;BME280;6302;42.624;23.334;2023-07-13T11:55:18;93497.19;;;36.40;34.70
12475;BME280;6302;42.624;23.334;2023-07-13T11:57:50;93495.00;;;36.31;34.87
12475;BME280;6302;42.624;23.334;2023-07-13T12:00:22;93487.78;;;36.43;35.12
12475;BME280;6302;42.624;23.334;2023-07-13T12:02:56;93483.03;;;36.36;31.80
12475;BME280;6302;42.624;23.334;2023-07-13T12:05:26;93484.13;;;36.40;33.89
12475;BME280;6302;42.624;23.334;2023-07-13T12:07:53;93481.00;;;36.51;32.67
12475;BME280;6302;42.624;23.334;2023-07-13T12:10:27;93477.13;;;36.47;33.33
12475;BME280;6302;42.624;23.334;2023-07-13T12:12:57;93475.28;;;36.49;32.52
12475;BME280;6302;42.624;23.334;2023-07-13T12:15:37;93476.72;;;36.66;32.35
12475;BME280;6302;42.624;23.334;2023-07-13T12:18:12;93473.25;;;36.58;31.94
12475;BME280;6302;42.624;23.334;2023-07-13T12:20:40;93471.94;;;36.74;33.64
12475;BME280;6302;42.624;23.334;2023-07-13T12:23:16;93466.16;;;36.87;33.14
12475;BME280;6302;42.624;23.334;2023-07-13T12:25:48;93461.22;;;36.78;30.24
12475;BME280;6302;42.624;23.334;2023-07-13T12:28:22;93453.81;;;36.88;30.88
12475;BME280;6302;42.624;23.334;2023-07-13T12:30:59;93459.34;;;36.95;32.86
12475;BME280;6302;42.624;23.334;2023-07-13T12:33:29;93447.66;;;37.12;31.93
12475;BME280;6302;42.624;23.334;2023-07-13T12:36:00;93445.22;;;37.16;31.33
12475;BME280;6302;42.624;23.334;2023-07-13T12:38:30;93447.44;;;37.17;31.06
12475;BME280;6302;42.624;23.334;2023-07-13T12:40:58;93440.78;;;37.21;32.50
12475;BME280;6302;42.624;23.334;2023-07-13T12:43:33;93447.06;;;37.13;31.41
12475;BME280;6302;42.624;23.334;2023-07-13T12:46:14;93440.56;;;37.26;31.48
12475;BME280;6302;42.624;23.334;2023-07-13T12:48:43;93438.56;;;37.19;31.35
12475;BME280;6302;42.624;23.334;2023-07-13T12:51:13;93434.91;;;37.16;30.99
12475;BME280;6302;42.624;23.334;2023-07-13T12:53:43;93432.34;;;37.11;30.57
12475;BME280;6302;42.624;23.334;2023-07-13T12:56:19;93430.84;;;37.17;31.43
12475;BME280;6302;42.624;23.334;2023-07-13T12:58:47;93430.41;;;37.29;32.00
12475;BME280;6302;42.624;23.334;2023-07-13T13:01:20;93429.06;;;37.37;31.15
12475;BME280;6302;42.624;23.334;2023-07-13T13:03:50;93425.63;;;37.29;31.69
12475;BME280;6302;42.624;23.334;2023-07-13T13:06:25;93418.94;;;37.40;31.62
12475;BME280;6302;42.624;23.334;2023-07-13T13:08:54;93419.88;;;37.35;31.19